sensor_id;sensor_type;location;lat;lon;timestamp;temperature;humidity
80236;DHT22;69543;42.138;24.742;2023-04-25T00:01:11;24.10;36.50
80236;DHT22;69543;42.138;24.742;2023-04-25T00:03:38;24.10;36.60
80236;DHT22;69543;42.138;24.742;2023-04-25T00:06:06;24.10;36.50
80236;DHT22;69543;42.138;24.742;2023-04-25T00:08:32;24.10;36.60
80236;DHT22;69543;42.138;24.742;2023-04-25T00:10:58;24.10;36.60
80236;DHT22;69543;42.138;24.742;2023-04-25T00:13:24;24.10;36.50
80236;DHT22;69543;42.138;24.742;2023-04-25T00:15:51;24.10;36.50
80236;DHT22;69543;42.138;24.742;2023-04-25T00:18:18;24.10;36.50
80236;DHT22;69543;42.138;24.742;2023-04-25T00:20:44;24.10;36.50
80236;DHT22;69543;42.138;24.742;2023-04-25T00:23:16;24.10;36.70
80236;DHT22;69543;42.138;24.742;2023-04-25T00:25:45;24.10;36.50
80236;DHT22;69543;42.138;24.742;2023-04-25T00:28:12;24.10;36.60
80236;DHT22;69543;42.138;24.742;2023-04-25T00:30:38;24.10;36.60
80236;DHT22;69543;42.138;24.742;2023-04-25T00:33:04;24.10;36.50
80236;DHT22;69543;42.138;24.742;2023-04-25T00:35:30;24.10;36.60
80236;DHT22;69543;42.138;24.742;2023-04-25T00:37:56;24.10;36.50
80236;DHT22;69543;42.138;24.742;2023-04-25T00:40:22;24.10;36.60
80236;DHT22;69543;42.138;24.742;2023-04-25T00:42:47;24.10;36.60
80236;DHT22;69543;42.138;24.742;2023-04-25T00:45:14;24.10;36.60
80236;DHT22;69543;42.138;24.742;2023-04-25T00:47:41;24.10;36.60
80236;DHT22;69543;42.138;24.742;2023-04-25T00:50:08;24.10;36.70
80236;DHT22;69543;42.138;24.742;2023-04-25T00:52:34;24.00;36.50
80236;DHT22;69543;42.138;24.742;2023-04-25T00:55:00;24.00;36.60
80236;DHT22;69543;42.138;24.742;2023-04-25T00:57:26;24.00;36.50
80236;DHT22;69543;42.138;24.742;2023-04-25T00:59:53;24.00;36.60
80236;DHT22;69543;42.138;24.742;2023-04-25T01:02:20;24.00;36.60
80236;DHT22;69543;42.138;24.742;2023-04-25T01:04:47;24.00;36.60
80236;DHT22;69543;42.138;24.742;2023-04-25T01:07:13;24.00;36.60
80236;DHT22;69543;42.138;24.742;2023-04-25T01:09:39;24.00;36.60
80236;DHT22;69543;42.138;24.742;2023-04-25T01:12:05;24.00;36.50
80236;DHT22;69543;42.138;24.742;2023-04-25T01:14:31;24.00;36.70
80236;DHT22;69543;42.138;24.742;2023-04-25T01:16:58;24.00;36.60
80236;DHT22;69543;42.138;24.742;2023-04-25T01:19:23;24.00;36.60
80236;DHT22;69543;42.138;24.742;2023-04-25T01:21:50;24.00;36.60
80236;DHT22;69543;42.138;24.742;2023-04-25T01:24:17;24.00;36.60
80236;DHT22;69543;42.138;24.742;2023-04-25T01:26:43;24.00;36.70
80236;DHT22;69543;42.138;24.742;2023-04-25T01:29:17;24.00;36.60
80236;DHT22;69543;42.138;24.742;2023-04-25T01:31:43;24.00;36.60
80236;DHT22;69543;42.138;24.742;2023-04-25T01:34:09;24.00;36.60
80236;DHT22;69543;42.138;24.742;2023-04-25T01:36:35;24.00;36.60
80236;DHT22;69543;42.138;24.742;2023-04-25T01:39:01;24.00;36.60
80236;DHT22;69543;42.138;24.742;2023-04-25T01:41:27;24.00;36.60
80236;DHT22;69543;42.138;24.742;2023-04-25T01:43:53;24.00;36.70
80236;DHT22;69543;42.138;24.742;2023-04-25T01:46:19;24.00;36.60
80236;DHT22;69543;42.138;24.742;2023-04-25T01:48:45;24.00;36.60
80236;DHT22;69543;42.138;24.742;2023-04-25T01:51:11;24.00;36.70
80236;DHT22;69543;42.138;24.742;2023-04-25T01:53:37;24.00;36.70
80236;DHT22;69543;42.138;24.742;2023-04-25T01:56:03;24.00;36.70
80236;DHT22;69543;42.138;24.742;2023-04-25T01:58:29;24.00;36.70
80236;DHT22;69543;42.138;24.742;2023-04-25T02:00:55;24.00;36.60
80236;DHT22;69543;42.138;24.742;2023-04-25T02:03:21;24.00;36.60
80236;DHT22;69543;42.138;24.742;2023-04-25T02:05:46;24.00;36.70
80236;DHT22;69543;42.138;24.742;2023-04-25T02:08:12;24.00;36.70
80236;DHT22;69543;42.138;24.742;2023-04-25T02:10:37;24.00;36.70
80236;DHT22;69543;42.138;24.742;2023-04-25T02:13:03;24.00;36.60
80236;DHT22;69543;42.138;24.742;2023-04-25T02:15:30;24.00;36.70
80236;DHT22;69543;42.138;24.742;2023-04-25T02:17:56;24.00;36.70
80236;DHT22;69543;42.138;24.742;2023-04-25T02:20:23;24.00;36.70
80236;DHT22;69543;42.138;24.742;2023-04-25T02:22:49;24.00;36.80
80236;DHT22;69543;42.138;24.742;2023-04-25T02:25:15;24.00;36.70
80236;DHT22;69543;42.138;24.742;2023-04-25T02:27:42;24.00;36.70
80236;DHT22;69543;42.138;24.742;2023-04-25T02:30:08;24.00;36.70
80236;DHT22;69543;42.138;24.742;2023-04-25T02:32:34;24.00;36.80
80236;DHT22;69543;42.138;24.742;2023-04-25T02:35:01;24.00;36.70
80236;DHT22;69543;42.138;24.742;2023-04-25T02:37:33;24.00;36.70
80236;DHT22;69543;42.138;24.742;2023-04-25T02:39:58;24.00;36.70
80236;DHT22;69543;42.138;24.742;2023-04-25T02:42:25;24.00;36.70
80236;DHT22;69543;42.138;24.742;2023-04-25T02:44:51;24.00;36.70
80236;DHT22;69543;42.138;24.742;2023-04-25T02:47:16;24.00;36.80
80236;DHT22;69543;42.138;24.742;2023-04-25T02:49:42;24.00;36.80
80236;DHT22;69543;42.138;24.742;2023-04-25T02:52:07;24.00;36.80
80236;DHT22;69543;42.138;24.742;2023-04-25T02:54:34;24.00;36.70
80236;DHT22;69543;42.138;24.742;2023-04-25T02:56:59;24.00;36.80
80236;DHT22;69543;42.138;24.742;2023-04-25T02:59:26;24.00;36.70
80236;DHT22;69543;42.138;24.742;2023-04-25T03:01:51;24.00;36.80
80236;DHT22;69543;42.138;24.742;2023-04-25T03:04:17;24.00;36.80
80236;DHT22;69543;42.138;24.742;2023-04-25T03:06:44;24.00;36.80
80236;DHT22;69543;42.138;24.742;2023-04-25T03:09:10;24.00;36.70
80236;DHT22;69543;42.138;24.742;2023-04-25T03:11:38;24.00;36.80
80236;DHT22;69543;42.138;24.742;2023-04-25T03:14:04;23.90;36.70
80236;DHT22;69543;42.138;24.742;2023-04-25T03:16:29;24.00;36.80
80236;DHT22;69543;42.138;24.742;2023-04-25T03:18:56;24.00;36.80
80236;DHT22;69543;42.138;24.742;2023-04-25T03:21:22;24.00;36.80
80236;DHT22;69543;42.138;24.742;2023-04-25T03:23:47;24.00;36.70
80236;DHT22;69543;42.138;24.742;2023-04-25T03:26:13;24.00;36.80
80236;DHT22;69543;42.138;24.742;2023-04-25T03:28:39;24.00;36.70
80236;DHT22;69543;42.138;24.742;2023-04-25T03:31:05;24.00;36.70
80236;DHT22;69543;42.138;24.742;2023-04-25T03:33:31;24.00;36.80
80236;DHT22;69543;42.138;24.742;2023-04-25T03:35:57;24.00;36.80
80236;DHT22;69543;42.138;24.742;2023-04-25T03:38:22;24.00;36.80
80236;DHT22;69543;42.138;24.742;2023-04-25T03:40:49;24.00;36.80
80236;DHT22;69543;42.138;24.742;2023-04-25T03:43:16;24.00;36.90
80236;DHT22;69543;42.138;24.742;2023-04-25T03:45:41;24.00;36.80
80236;DHT22;69543;42.138;24.742;2023-04-25T03:48:07;24.00;36.80
80236;DHT22;69543;42.138;24.742;2023-04-25T03:50:33;24.00;36.80
80236;DHT22;69543;42.138;24.742;2023-04-25T03:52:58;23.90;36.70
80236;DHT22;69543;42.138;24.742;2023-04-25T03:55:24;24.00;36.70
80236;DHT22;69543;42.138;24.742;2023-04-25T03:57:50;24.00;36.80
80236;DHT22;69543;42.138;24.742;2023-04-25T04:00:15;24.00;37.30
80236;DHT22;69543;42.138;24.742;2023-04-25T04:02:41;24.00;37.90
80236;DHT22;69543;42.138;24.742;2023-04-25T04:05:07;24.00;38.20
80236;DHT22;69543;42.138;24.742;2023-04-25T04:07:33;24.00;38.10
80236;DHT22;69543;42.138;24.742;2023-04-25T04:10:01;24.00;38.30
80236;DHT22;69543;42.138;24.742;2023-04-25T04:12:26;24.00;38.10
80236;DHT22;69543;42.138;24.742;2023-04-25T04:14:52;24.00;38.40
80236;DHT22;69543;42.138;24.742;2023-04-25T04:17:17;24.00;38.50
80236;DHT22;69543;42.138;24.742;2023-04-25T04:19:43;24.00;38.30
80236;DHT22;69543;42.138;24.742;2023-04-25T04:22:09;24.00;38.40
80236;DHT22;69543;42.138;24.742;2023-04-25T04:24:35;24.00;38.60
80236;DHT22;69543;42.138;24.742;2023-04-25T04:27:01;24.00;38.90
80236;DHT22;69543;42.138;24.742;2023-04-25T04:29:26;24.00;39.30
80236;DHT22;69543;42.138;24.742;2023-04-25T04:31:52;24.10;39.20
80236;DHT22;69543;42.138;24.742;2023-04-25T04:34:18;24.10;39.30
80236;DHT22;69543;42.138;24.742;2023-04-25T04:36:46;24.00;39.60
80236;DHT22;69543;42.138;24.742;2023-04-25T04:39:12;24.00;39.60
80236;DHT22;69543;42.138;24.742;2023-04-25T04:41:38;24.00;39.80
80236;DHT22;69543;42.138;24.742;2023-04-25T04:44:05;23.90;40.00
80236;DHT22;69543;42.138;24.742;2023-04-25T04:46:32;23.90;40.10
80236;DHT22;69543;42.138;24.742;2023-04-25T04:49:04;23.80;40.20
80236;DHT22;69543;42.138;24.742;2023-04-25T04:51:30;23.80;40.20
80236;DHT22;69543;42.138;24.742;2023-04-25T04:53:56;23.80;40.30
80236;DHT22;69543;42.138;24.742;2023-04-25T04:56:24;23.70;40.50
80236;DHT22;69543;42.138;24.742;2023-04-25T04:58:51;23.70;40.90
80236;DHT22;69543;42.138;24.742;2023-04-25T05:01:17;23.70;40.80
80236;DHT22;69543;42.138;24.742;2023-04-25T05:03:43;23.70;40.60
80236;DHT22;69543;42.138;24.742;2023-04-25T05:06:09;23.70;40.70
80236;DHT22;69543;42.138;24.742;2023-04-25T05:08:35;23.60;40.80
80236;DHT22;69543;42.138;24.742;2023-04-25T05:11:01;23.60;40.90
80236;DHT22;69543;42.138;24.742;2023-04-25T05:13:27;23.50;41.00
80236;DHT22;69543;42.138;24.742;2023-04-25T05:15:53;23.60;41.20
80236;DHT22;69543;42.138;24.742;2023-04-25T05:18:18;23.50;41.20
80236;DHT22;69543;42.138;24.742;2023-04-25T05:20:44;23.50;41.30
80236;DHT22;69543;42.138;24.742;2023-04-25T05:23:10;23.40;41.40
80236;DHT22;69543;42.138;24.742;2023-04-25T05:25:35;23.40;41.90
80236;DHT22;69543;42.138;24.742;2023-04-25T05:28:01;23.40;41.60
80236;DHT22;69543;42.138;24.742;2023-04-25T05:30:26;23.40;41.10
80236;DHT22;69543;42.138;24.742;2023-04-25T05:32:52;23.40;41.00
80236;DHT22;69543;42.138;24.742;2023-04-25T05:35:18;23.40;41.10
80236;DHT22;69543;42.138;24.742;2023-04-25T05:37:43;23.40;40.80
80236;DHT22;69543;42.138;24.742;2023-04-25T05:40:09;23.50;42.50
80236;DHT22;69543;42.138;24.742;2023-04-25T05:42:35;23.50;41.10
80236;DHT22;69543;42.138;24.742;2023-04-25T05:45:01;23.50;41.80
80236;DHT22;69543;42.138;24.742;2023-04-25T05:47:27;23.50;41.50
80236;DHT22;69543;42.138;24.742;2023-04-25T05:49:52;23.50;41.20
80236;DHT22;69543;42.138;24.742;2023-04-25T05:52:18;23.50;42.00
80236;DHT22;69543;42.138;24.742;2023-04-25T05:54:44;23.50;42.00
80236;DHT22;69543;42.138;24.742;2023-04-25T05:57:24;23.50;42.20
80236;DHT22;69543;42.138;24.742;2023-04-25T05:59:50;23.60;42.10
80236;DHT22;69543;42.138;24.742;2023-04-25T06:02:16;23.60;41.80
80236;DHT22;69543;42.138;24.742;2023-04-25T06:04:42;23.60;41.60
80236;DHT22;69543;42.138;24.742;2023-04-25T06:07:08;23.60;42.00
80236;DHT22;69543;42.138;24.742;2023-04-25T06:09:34;23.60;41.80
80236;DHT22;69543;42.138;24.742;2023-04-25T06:11:59;23.60;41.80
80236;DHT22;69543;42.138;24.742;2023-04-25T06:14:26;23.60;41.70
80236;DHT22;69543;42.138;24.742;2023-04-25T06:16:52;23.60;41.90
80236;DHT22;69543;42.138;24.742;2023-04-25T06:19:17;23.60;42.00
80236;DHT22;69543;42.138;24.742;2023-04-25T06:21:43;23.60;42.00
80236;DHT22;69543;42.138;24.742;2023-04-25T06:24:09;23.70;42.30
80236;DHT22;69543;42.138;24.742;2023-04-25T06:26:35;23.70;42.10
80236;DHT22;69543;42.138;24.742;2023-04-25T06:29:01;23.70;42.00
80236;DHT22;69543;42.138;24.742;2023-04-25T06:31:27;23.70;42.00
80236;DHT22;69543;42.138;24.742;2023-04-25T06:33:54;23.70;41.90
80236;DHT22;69543;42.138;24.742;2023-04-25T06:36:23;23.70;42.10
80236;DHT22;69543;42.138;24.742;2023-04-25T06:38:53;23.70;42.20
80236;DHT22;69543;42.138;24.742;2023-04-25T06:41:19;23.80;42.50
80236;DHT22;69543;42.138;24.742;2023-04-25T06:43:45;23.80;42.50
80236;DHT22;69543;42.138;24.742;2023-04-25T06:46:11;23.70;42.60
80236;DHT22;69543;42.138;24.742;2023-04-25T06:48:37;23.80;42.60
80236;DHT22;69543;42.138;24.742;2023-04-25T06:51:03;23.80;43.20
80236;DHT22;69543;42.138;24.742;2023-04-25T06:53:28;23.80;42.50
80236;DHT22;69543;42.138;24.742;2023-04-25T06:55:54;23.80;42.40
80236;DHT22;69543;42.138;24.742;2023-04-25T06:58:20;23.90;42.50
80236;DHT22;69543;42.138;24.742;2023-04-25T07:00:45;23.90;42.50
80236;DHT22;69543;42.138;24.742;2023-04-25T07:03:11;23.90;42.50
80236;DHT22;69543;42.138;24.742;2023-04-25T07:05:37;23.90;42.50
80236;DHT22;69543;42.138;24.742;2023-04-25T07:08:03;24.00;42.40
80236;DHT22;69543;42.138;24.742;2023-04-25T07:10:29;24.00;42.40
80236;DHT22;69543;42.138;24.742;2023-04-25T07:12:55;24.00;42.40
80236;DHT22;69543;42.138;24.742;2023-04-25T07:15:20;24.00;42.50
80236;DHT22;69543;42.138;24.742;2023-04-25T07:17:46;24.00;42.40
80236;DHT22;69543;42.138;24.742;2023-04-25T07:20:12;24.00;42.40
80236;DHT22;69543;42.138;24.742;2023-04-25T07:22:38;24.10;42.40
80236;DHT22;69543;42.138;24.742;2023-04-25T07:25:04;24.00;42.30
80236;DHT22;69543;42.138;24.742;2023-04-25T07:27:30;24.10;42.40
80236;DHT22;69543;42.138;24.742;2023-04-25T07:29:57;24.00;42.30
80236;DHT22;69543;42.138;24.742;2023-04-25T07:32:22;24.10;42.40
80236;DHT22;69543;42.138;24.742;2023-04-25T07:34:48;24.10;42.40
80236;DHT22;69543;42.138;24.742;2023-04-25T07:37:14;24.10;42.30
80236;DHT22;69543;42.138;24.742;2023-04-25T07:39:40;24.10;42.30
80236;DHT22;69543;42.138;24.742;2023-04-25T07:42:06;24.20;42.40
80236;DHT22;69543;42.138;24.742;2023-04-25T07:44:34;24.10;42.40
80236;DHT22;69543;42.138;24.742;2023-04-25T07:47:05;24.20;42.30
80236;DHT22;69543;42.138;24.742;2023-04-25T07:49:36;24.10;42.40
80236;DHT22;69543;42.138;24.742;2023-04-25T07:52:04;24.10;42.40
80236;DHT22;69543;42.138;24.742;2023-04-25T07:54:30;24.10;42.40
80236;DHT22;69543;42.138;24.742;2023-04-25T07:56:56;24.10;42.40
80236;DHT22;69543;42.138;24.742;2023-04-25T07:59:22;24.20;42.40
80236;DHT22;69543;42.138;24.742;2023-04-25T08:01:48;24.10;42.40
80236;DHT22;69543;42.138;24.742;2023-04-25T08:04:14;24.20;42.50
80236;DHT22;69543;42.138;24.742;2023-04-25T08:06:39;24.20;42.60
80236;DHT22;69543;42.138;24.742;2023-04-25T08:09:06;24.20;42.50
80236;DHT22;69543;42.138;24.742;2023-04-25T08:11:32;24.20;42.30
80236;DHT22;69543;42.138;24.742;2023-04-25T08:13:57;24.30;42.20
80236;DHT22;69543;42.138;24.742;2023-04-25T08:16:23;24.20;42.10
80236;DHT22;69543;42.138;24.742;2023-04-25T08:18:50;24.20;42.40
80236;DHT22;69543;42.138;24.742;2023-04-25T08:21:15;24.20;42.40
80236;DHT22;69543;42.138;24.742;2023-04-25T08:23:41;24.20;42.60
80236;DHT22;69543;42.138;24.742;2023-04-25T08:26:07;24.20;42.70
80236;DHT22;69543;42.138;24.742;2023-04-25T08:28:33;24.20;42.70
80236;DHT22;69543;42.138;24.742;2023-04-25T08:30:59;24.30;42.80
80236;DHT22;69543;42.138;24.742;2023-04-25T08:33:25;24.30;42.80
80236;DHT22;69543;42.138;24.742;2023-04-25T08:35:51;24.30;43.00
80236;DHT22;69543;42.138;24.742;2023-04-25T08:38:18;24.30;42.90
80236;DHT22;69543;42.138;24.742;2023-04-25T08:40:44;24.30;42.90
80236;DHT22;69543;42.138;24.742;2023-04-25T08:43:13;24.30;42.80
80236;DHT22;69543;42.138;24.742;2023-04-25T08:45:41;24.40;42.80
80236;DHT22;69543;42.138;24.742;2023-04-25T08:48:15;24.40;42.70
80236;DHT22;69543;42.138;24.742;2023-04-25T08:50:52;24.40;42.50
80236;DHT22;69543;42.138;24.742;2023-04-25T08:53:26;24.40;42.60
80236;DHT22;69543;42.138;24.742;2023-04-25T08:55:54;24.40;42.60
80236;DHT22;69543;42.138;24.742;2023-04-25T08:58:21;24.40;42.70
80236;DHT22;69543;42.138;24.742;2023-04-25T09:00:48;24.40;42.70
80236;DHT22;69543;42.138;24.742;2023-04-25T09:03:14;24.50;43.80
80236;DHT22;69543;42.138;24.742;2023-04-25T09:05:41;24.40;42.70
80236;DHT22;69543;42.138;24.742;2023-04-25T09:08:07;24.40;42.80
80236;DHT22;69543;42.138;24.742;2023-04-25T09:10:33;24.40;42.80
80236;DHT22;69543;42.138;24.742;2023-04-25T09:13:09;24.40;42.80
80236;DHT22;69543;42.138;24.742;2023-04-25T09:15:52;24.50;42.80
80236;DHT22;69543;42.138;24.742;2023-04-25T09:20:55;24.50;42.70
80236;DHT22;69543;42.138;24.742;2023-04-25T09:23:22;24.50;42.70
80236;DHT22;69543;42.138;24.742;2023-04-25T09:25:53;24.40;42.70
80236;DHT22;69543;42.138;24.742;2023-04-25T09:28:26;24.50;42.70
80236;DHT22;69543;42.138;24.742;2023-04-25T09:30:56;24.50;42.70
80236;DHT22;69543;42.138;24.742;2023-04-25T09:33:30;24.50;42.80
80236;DHT22;69543;42.138;24.742;2023-04-25T09:38:30;24.50;42.70
80236;DHT22;69543;42.138;24.742;2023-04-25T09:40:56;24.50;42.70
80236;DHT22;69543;42.138;24.742;2023-04-25T09:43:25;24.50;42.60
80236;DHT22;69543;42.138;24.742;2023-04-25T09:45:54;24.50;42.50
80236;DHT22;69543;42.138;24.742;2023-04-25T09:48:24;24.50;42.50
80236;DHT22;69543;42.138;24.742;2023-04-25T09:51:10;24.50;42.40
80236;DHT22;69543;42.138;24.742;2023-04-25T09:53:38;24.60;42.30
80236;DHT22;69543;42.138;24.742;2023-04-25T09:56:05;24.50;42.30
80236;DHT22;69543;42.138;24.742;2023-04-25T09:58:33;24.50;42.40
80236;DHT22;69543;42.138;24.742;2023-04-25T10:01:04;24.50;42.40
80236;DHT22;69543;42.138;24.742;2023-04-25T10:03:34;24.50;42.30
80236;DHT22;69543;42.138;24.742;2023-04-25T10:06:02;24.50;42.40
80236;DHT22;69543;42.138;24.742;2023-04-25T10:08:34;24.50;42.40
80236;DHT22;69543;42.138;24.742;2023-04-25T10:11:05;24.50;42.40
80236;DHT22;69543;42.138;24.742;2023-04-25T10:13:32;24.50;42.30
80236;DHT22;69543;42.138;24.742;2023-04-25T10:15:59;24.50;42.20
80236;DHT22;69543;42.138;24.742;2023-04-25T10:18:26;24.50;42.10
80236;DHT22;69543;42.138;24.742;2023-04-25T10:20:54;24.50;42.20
80236;DHT22;69543;42.138;24.742;2023-04-25T10:23:21;24.50;42.30
80236;DHT22;69543;42.138;24.742;2023-04-25T10:25:46;24.50;42.20
80236;DHT22;69543;42.138;24.742;2023-04-25T10:28:13;24.50;42.00
80236;DHT22;69543;42.138;24.742;2023-04-25T10:30:57;24.50;41.90
80236;DHT22;69543;42.138;24.742;2023-04-25T10:33:32;24.60;41.70
80236;DHT22;69543;42.138;24.742;2023-04-25T10:35:58;24.60;41.60
80236;DHT22;69543;42.138;24.742;2023-04-25T10:38:26;24.60;41.60
80236;DHT22;69543;42.138;24.742;2023-04-25T10:41:08;24.60;41.60
80236;DHT22;69543;42.138;24.742;2023-04-25T10:43:39;24.60;41.50
80236;DHT22;69543;42.138;24.742;2023-04-25T10:46:24;24.60;41.50
80236;DHT22;69543;42.138;24.742;2023-04-25T10:48:52;24.60;41.40
80236;DHT22;69543;42.138;24.742;2023-04-25T10:51:26;24.60;41.60
80236;DHT22;69543;42.138;24.742;2023-04-25T10:56:25;24.60;41.50
80236;DHT22;69543;42.138;24.742;2023-04-25T10:58:51;24.60;41.40
80236;DHT22;69543;42.138;24.742;2023-04-25T11:01:21;24.70;41.30
80236;DHT22;69543;42.138;24.742;2023-04-25T11:03:46;24.60;41.40
80236;DHT22;69543;42.138;24.742;2023-04-25T11:06:41;24.70;41.30
80236;DHT22;69543;42.138;24.742;2023-04-25T11:09:11;24.60;41.20
80236;DHT22;69543;42.138;24.742;2023-04-25T11:11:41;24.60;41.20
80236;DHT22;69543;42.138;24.742;2023-04-25T11:14:07;24.60;41.20
80236;DHT22;69543;42.138;24.742;2023-04-25T11:16:32;24.70;41.30
80236;DHT22;69543;42.138;24.742;2023-04-25T11:18:58;24.60;41.20
80236;DHT22;69543;42.138;24.742;2023-04-25T11:21:27;24.70;41.20
80236;DHT22;69543;42.138;24.742;2023-04-25T11:23:57;24.70;41.10
80236;DHT22;69543;42.138;24.742;2023-04-25T11:26:24;24.70;41.10
80236;DHT22;69543;42.138;24.742;2023-04-25T11:28:51;24.70;40.90
80236;DHT22;69543;42.138;24.742;2023-04-25T11:31:20;24.70;40.90
80236;DHT22;69543;42.138;24.742;2023-04-25T11:33:47;24.70;40.80
80236;DHT22;69543;42.138;24.742;2023-04-25T11:36:13;24.70;40.90
80236;DHT22;69543;42.138;24.742;2023-04-25T11:38:39;24.70;40.90
80236;DHT22;69543;42.138;24.742;2023-04-25T11:41:05;24.70;41.00
80236;DHT22;69543;42.138;24.742;2023-04-25T11:43:31;24.70;40.90
80236;DHT22;69543;42.138;24.742;2023-04-25T11:45:57;24.70;40.80
80236;DHT22;69543;42.138;24.742;2023-04-25T11:48:23;24.70;40.80
80236;DHT22;69543;42.138;24.742;2023-04-25T11:50:48;24.70;40.90
80236;DHT22;69543;42.138;24.742;2023-04-25T11:53:14;24.70;40.80
80236;DHT22;69543;42.138;24.742;2023-04-25T11:55:42;24.70;40.80
80236;DHT22;69543;42.138;24.742;2023-04-25T11:58:08;24.70;40.80
80236;DHT22;69543;42.138;24.742;2023-04-25T12:00:35;24.70;40.70
80236;DHT22;69543;42.138;24.742;2023-04-25T12:03:01;24.70;40.70
80236;DHT22;69543;42.138;24.742;2023-04-25T12:05:30;24.70;40.60
80236;DHT22;69543;42.138;24.742;2023-04-25T12:07:57;24.70;40.50
80236;DHT22;69543;42.138;24.742;2023-04-25T12:10:24;24.70;40.60
80236;DHT22;69543;42.138;24.742;2023-04-25T12:12:51;24.70;40.70
80236;DHT22;69543;42.138;24.742;2023-04-25T12:17:48;24.70;40.80
80236;DHT22;69543;42.138;24.742;2023-04-25T12:20:16;24.80;40.80
80236;DHT22;69543;42.138;24.742;2023-04-25T12:22:47;24.80;40.80
80236;DHT22;69543;42.138;24.742;2023-04-25T12:25:33;24.80;40.70
80236;DHT22;69543;42.138;24.742;2023-04-25T12:31:01;24.80;40.80
80236;DHT22;69543;42.138;24.742;2023-04-25T12:33:37;24.70;41.00
80236;DHT22;69543;42.138;24.742;2023-04-25T12:36:05;24.70;41.10
80236;DHT22;69543;42.138;24.742;2023-04-25T12:38:39;24.70;41.30
80236;DHT22;69543;42.138;24.742;2023-04-25T12:41:06;24.70;41.30
80236;DHT22;69543;42.138;24.742;2023-04-25T12:43:32;24.70;41.30
80236;DHT22;69543;42.138;24.742;2023-04-25T12:45:57;24.70;41.30
80236;DHT22;69543;42.138;24.742;2023-04-25T12:48:23;24.70;41.30
80236;DHT22;69543;42.138;24.742;2023-04-25T12:50:50;24.70;41.30
80236;DHT22;69543;42.138;24.742;2023-04-25T12:53:18;24.70;41.40
80236;DHT22;69543;42.138;24.742;2023-04-25T12:55:44;24.70;41.40
80236;DHT22;69543;42.138;24.742;2023-04-25T12:58:14;24.70;41.30
80236;DHT22;69543;42.138;24.742;2023-04-25T13:00:39;24.70;41.30
80236;DHT22;69543;42.138;24.742;2023-04-25T13:03:05;24.70;41.20
80236;DHT22;69543;42.138;24.742;2023-04-25T13:05:31;24.80;41.10
80236;DHT22;69543;42.138;24.742;2023-04-25T13:07:57;24.80;41.10
80236;DHT22;69543;42.138;24.742;2023-04-25T13:10:23;24.80;41.10
80236;DHT22;69543;42.138;24.742;2023-04-25T13:12:48;24.80;41.10
80236;DHT22;69543;42.138;24.742;2023-04-25T13:15:14;24.80;41.20
80236;DHT22;69543;42.138;24.742;2023-04-25T13:17:41;24.80;41.60
80236;DHT22;69543;42.138;24.742;2023-04-25T13:20:08;24.80;41.40
80236;DHT22;69543;42.138;24.742;2023-04-25T13:22:38;24.90;41.50
80236;DHT22;69543;42.138;24.742;2023-04-25T13:25:06;24.80;41.30
80236;DHT22;69543;42.138;24.742;2023-04-25T13:27:32;24.80;41.20
80236;DHT22;69543;42.138;24.742;2023-04-25T13:29:59;24.90;41.10
80236;DHT22;69543;42.138;24.742;2023-04-25T13:32:26;24.90;40.70
80236;DHT22;69543;42.138;24.742;2023-04-25T13:34:52;24.90;40.50
80236;DHT22;69543;42.138;24.742;2023-04-25T13:37:18;24.90;40.20
80236;DHT22;69543;42.138;24.742;2023-04-25T13:39:44;24.90;40.10
80236;DHT22;69543;42.138;24.742;2023-04-25T13:42:10;24.90;39.70
80236;DHT22;69543;42.138;24.742;2023-04-25T13:44:36;24.80;39.20
80236;DHT22;69543;42.138;24.742;2023-04-25T13:47:02;24.90;38.80
80236;DHT22;69543;42.138;24.742;2023-04-25T13:49:28;24.90;38.60
80236;DHT22;69543;42.138;24.742;2023-04-25T13:51:53;24.80;38.40
80236;DHT22;69543;42.138;24.742;2023-04-25T13:54:19;24.90;38.30
80236;DHT22;69543;42.138;24.742;2023-04-25T13:56:45;24.80;38.20
80236;DHT22;69543;42.138;24.742;2023-04-25T13:59:11;24.80;38.30
80236;DHT22;69543;42.138;24.742;2023-04-25T14:01:36;24.90;38.40
80236;DHT22;69543;42.138;24.742;2023-04-25T14:04:02;24.80;38.30
80236;DHT22;69543;42.138;24.742;2023-04-25T14:06:31;24.80;38.30
80236;DHT22;69543;42.138;24.742;2023-04-25T14:08:57;24.80;38.40
80236;DHT22;69543;42.138;24.742;2023-04-25T14:11:25;24.80;38.40
80236;DHT22;69543;42.138;24.742;2023-04-25T14:13:51;24.80;38.60
80236;DHT22;69543;42.138;24.742;2023-04-25T14:16:17;24.80;38.50
80236;DHT22;69543;42.138;24.742;2023-04-25T14:18:42;24.80;38.70
80236;DHT22;69543;42.138;24.742;2023-04-25T14:21:08;24.80;38.80
80236;DHT22;69543;42.138;24.742;2023-04-25T14:23:34;24.80;38.70
80236;DHT22;69543;42.138;24.742;2023-04-25T14:26:00;24.80;38.70
80236;DHT22;69543;42.138;24.742;2023-04-25T14:28:25;24.80;38.80
80236;DHT22;69543;42.138;24.742;2023-04-25T14:30:51;24.80;38.70
80236;DHT22;69543;42.138;24.742;2023-04-25T14:33:17;24.80;38.70
80236;DHT22;69543;42.138;24.742;2023-04-25T14:35:42;24.90;38.90
80236;DHT22;69543;42.138;24.742;2023-04-25T14:38:08;24.90;38.80
80236;DHT22;69543;42.138;24.742;2023-04-25T14:40:33;24.90;38.80
80236;DHT22;69543;42.138;24.742;2023-04-25T14:42:59;24.90;38.70
80236;DHT22;69543;42.138;24.742;2023-04-25T14:45:25;24.90;38.80
80236;DHT22;69543;42.138;24.742;2023-04-25T14:47:51;25.00;38.80
80236;DHT22;69543;42.138;24.742;2023-04-25T14:50:17;25.00;38.90
80236;DHT22;69543;42.138;24.742;2023-04-25T14:52:42;25.00;38.80
80236;DHT22;69543;42.138;24.742;2023-04-25T14:55:09;25.00;38.60
80236;DHT22;69543;42.138;24.742;2023-04-25T14:57:35;25.00;38.90
80236;DHT22;69543;42.138;24.742;2023-04-25T15:00:01;25.10;38.60
80236;DHT22;69543;42.138;24.742;2023-04-25T15:02:28;25.10;37.70
80236;DHT22;69543;42.138;24.742;2023-04-25T15:04:54;25.10;37.70
80236;DHT22;69543;42.138;24.742;2023-04-25T15:07:21;25.10;37.90
80236;DHT22;69543;42.138;24.742;2023-04-25T15:09:47;25.10;37.40
80236;DHT22;69543;42.138;24.742;2023-04-25T15:12:13;25.20;37.10
80236;DHT22;69543;42.138;24.742;2023-04-25T15:14:39;25.20;37.00
80236;DHT22;69543;42.138;24.742;2023-04-25T15:17:05;25.10;36.60
80236;DHT22;69543;42.138;24.742;2023-04-25T15:19:31;25.20;36.70
80236;DHT22;69543;42.138;24.742;2023-04-25T15:21:57;25.20;36.70
80236;DHT22;69543;42.138;24.742;2023-04-25T15:24:25;25.10;36.40
80236;DHT22;69543;42.138;24.742;2023-04-25T15:26:51;25.10;36.30